Station: Kalgoorlie-Boulder

  Atmospheric Gas Attenuation - ITU Rec 676-11   --------------- db/100km ---------------
Date Time Temp RH % AH g/m3 Dew Point Wind Direction Speed kph Gust kph Barometer mB Rainfall Since 9am 24GHz 47GHz 76GHz 122GHz 134GHz 241GHz
04 04:30 4 87 5.54 2 7 9 1007.4 0 13.4 23.4 31.6 82.6 67.9 230.3
04 04:20 3.8 87 5.46 1.8 7 9 1007.7 0 13.3 23.3 31.4 82.0 67.0 227.2
04 04:10 3.6 88 5.45 1.8 9 9 1007.7 0 13.2 23.4 31.4 82.1 67.0 227.3
04 04:00 3.8 87 5.46 1.8 2 9 1007.4 0 13.3 23.3 31.4 82.0 67.0 227.1
04 03:40 3.2 87 5.25 1.3 0 0 1007.7 0 12.8 23.2 30.8 80.4 64.7 219.1
04 03:30 3.1 87 5.21 1.2 0 0 1007.6 0 12.7 23.1 30.7 80.0 64.3 217.5
04 03:20 3.3 86 5.22 1.2 0 0 1007.9 0 12.8 23.1 30.6 80.0 64.3 217.4
04 03:10 3.7 88 5.49 1.9 0 0 1008 0 13.3 23.4 31.6 82.5 67.5 228.9
04 03:00 3.4 87 5.32 1.4 0 0 1007.9 0 13.0 23.2 31.0 80.9 65.5 221.8
04 02:50 3.6 85 5.27 1.3 0 0 1008.2 0 12.9 23.1 30.7 80.2 64.7 219.0
04 02:40 3.7 85 5.3 1.4 0 0 1008.3 0 12.9 23.1 30.8 80.4 65.0 220.1
04 02:30 3.7 86 5.36 1.6 2 6 1008.2 0 13.0 23.2 31.1 81.1 65.8 222.9
04 02:20 4 86 5.47 1.9 6 7 1008.4 0 13.3 23.3 31.4 82.0 67.0 227.2
04 02:10 4.1 86 5.51 2 0 0 1008.6 0 13.4 23.4 31.5 82.3 67.5 228.8
04 02:00 4 84 5.35 1.5 0 6 1008.6 0 13.0 23.2 30.9 80.7 65.4 221.7
04 01:50 4.4 85 5.55 2.1 6 6 1008.9 0 13.4 23.4 31.6 82.4 67.8 229.9
04 01:30 4.5 84 5.53 2 7 9 1008.8 0 13.4 23.3 31.4 82.1 67.4 228.6
04 01:20 4.4 84 5.49 1.9 6 7 1009.2 0 13.3 23.3 31.3 81.8 67.0 227.1
04 01:10 4.4 83 5.42 1.8 6 7 1009.2 0 13.2 23.2 31.1 81.1 66.0 223.9
04 01:00 4.6 83 5.5 2 9 9 1009.1 0 13.3 23.3 31.3 81.7 66.9 227.0
04 00:50 4.8 83 5.57 2.2 9 9 1009.3 0 13.5 23.3 31.5 82.3 67.7 229.7
04 00:40 5.1 81 5.54 2.1 9 9 1009.3 0 13.4 23.2 31.3 81.6 67.0 227.4
04 00:30 5.2 81 5.58 2.2 9 11 1009.1 0 13.5 23.2 31.4 81.9 67.5 229.0
04 00:20 5.3 81 5.62 2.3 9 11 1009.3 0 13.5 23.3 31.5 82.3 67.9 230.6
04 00:10 5.3 77 5.34 1.6 9 9 1009.3 0 12.9 22.8 30.4 79.3 64.3 217.7
04 00:00 5.8 74 5.3 1.5 6 9 1009 0 12.8 22.6 30.0 78.4 63.3 214.5
03 23:50 6.3 71 5.26 1.4 0 2 1009.3 0 12.7 22.5 29.7 77.5 62.4 211.4
03 23:40 6.7 69 5.25 1.4 4 6 1009.4 0 12.7 22.3 29.5 77.0 62.0 209.9
03 23:30 7.6 67 5.4 1.9 7 9 1009.3 0 13.0 22.3 29.8 77.7 63.2 214.2
03 23:20 8 65 5.38 1.8 9 9 1009.6 0 12.9 22.2 29.6 77.1 62.6 212.3
03 23:10 8.3 65 5.48 2.1 11 13 1009.6 0 13.1 22.3 29.8 77.8 63.6 215.9
03 23:00 8.4 64 5.43 2 11 13 1009.4 0 13.0 22.2 29.6 77.2 62.9 213.4
03 22:50 8.8 64 5.57 2.4 11 13 1009.7 0 13.3 22.3 30.0 78.3 64.3 218.5
03 22:40 8.8 64 5.57 2.4 11 13 1009.8 0 13.3 22.3 30.0 78.3 64.3 218.5
03 22:30 8.5 64 5.47 2.1 11 15 1009.6 0 13.1 22.2 29.7 77.5 63.3 214.9
03 22:20 8.5 65 5.55 2.3 13 15 1009.9 0 13.3 22.4 30.0 78.4 64.3 218.5
03 22:10 8.3 68 5.73 2.8 15 17 1009.9 0 13.7 22.7 30.8 80.4 66.8 227.0
03 22:00 8.3 71 5.99 3.4 13 17 1009.7 0 14.2 23.1 31.8 83.1 70.1 238.6
03 21:50 7.5 73 5.85 3 11 13 1009.9 0 14.0 23.1 31.6 82.5 69.0 234.7
03 21:40 7.6 74 5.96 3.3 9 9 1010 0 14.2 23.2 32.0 83.5 70.3 239.4
03 21:30 7.5 75 6.01 3.4 6 9 1010.1 0 14.3 23.4 32.2 84.2 71.1 242.0
03 21:20 7.6 75 6.04 3.5 0 0 1010.3 0 14.4 23.4 32.3 84.4 71.4 243.1
03 21:10 7.8 74 6.04 3.5 0 0 1010.5 0 14.4 23.3 32.2 84.2 71.2 242.5
03 21:00 7.7 74 6 3.4 0 0 1010.4 0 14.3 23.3 32.1 83.9 70.8 241.0
03 20:50 7.1 72 5.62 2.4 0 0 1010.5 0 13.5 22.9 30.9 80.5 66.4 225.6
03 20:40 7.9 69 5.67 2.6 0 0 1010.6 0 13.6 22.7 30.7 80.3 66.4 225.6
03 20:30 8.1 69 5.74 2.8 0 0 1010.4 0 13.7 22.8 30.9 80.8 67.1 228.1
03 20:20 8.7 70 6.06 3.5 0 0 1010.5 0 14.4 23.1 31.9 83.4 70.7 240.7
03 20:10 8.7 70 6.06 3.5 0 0 1010.5 0 14.4 23.1 31.9 83.4 70.7 240.7
03 20:00 9 67 5.91 3.2 4 7 1010.4 0 14.0 22.8 31.2 81.6 68.5 233.1
03 19:50 9.4 67 6.06 3.6 7 7 1010.5 0 14.3 23.0 31.7 82.7 70.0 238.6
03 19:40 9.7 66 6.09 3.7 9 9 1010.5 0 14.4 22.9 31.7 82.7 70.2 239.0
03 19:30 9.9 65 6.07 3.6 11 15 1010.3 0 14.3 22.8 31.5 82.3 69.7 237.5
03 19:20 10.2 65 6.19 3.9 13 15 1010.3 0 14.6 23.0 31.8 83.2 71.0 241.9
03 19:10 10.2 64 6.09 3.7 13 15 1010.3 0 14.4 22.8 31.5 82.2 69.7 237.5
03 19:00 10.4 63 6.07 3.7 13 19 1010.1 0 14.3 22.7 31.3 81.7 69.3 236.0
03 18:50 10.8 62 6.13 3.8 11 13 1010.1 0 14.4 22.7 31.4 81.9 69.7 237.4
03 18:40 11 62 6.21 4 19 20 1009.9 0 14.6 22.8 31.6 82.5 70.5 240.3
03 18:30 11.3 61 6.22 4.1 19 24 1009.5 0 14.6 22.7 31.5 82.3 70.3 239.7
03 18:20 11.6 59 6.13 3.9 19 20 1009.6 0 14.4 22.5 31.0 81.1 68.9 234.9
03 18:10 12 58 6.18 4 20 28 1009.4 0 14.5 22.5 31.1 81.2 69.2 235.9
03 18:00 12.4 57 6.23 4.1 19 26 1009 0 14.6 22.4 31.1 81.2 69.4 236.8
03 17:50 12.7 56 6.23 4.2 19 20 1009 0 14.6 22.3 31.0 80.9 69.2 235.9
03 17:40 12.9 55 6.2 4.1 19 20 1008.7 0 14.5 22.2 30.8 80.4 68.6 234.0
03 17:30 13.2 54 6.2 4.1 22 32 1008.6 0 14.5 22.2 30.6 80.1 68.3 233.1
03 17:20 13.5 54 6.32 4.4 28 30 1008.5 0 14.7 22.3 31.0 80.9 69.5 237.3
03 17:10 14.3 51 6.27 4.3 26 33 1008.3 0 14.6 22.0 30.5 79.6 68.2 232.8
03 17:00 15.4 49 6.44 4.8 26 39 1007.9 0 14.9 22.0 30.7 80.1 69.3 236.6
03 16:50 15.9 47 6.36 4.6 26 32 1007.9 0 14.7 21.7 30.2 78.9 67.9 231.9
03 16:40 16.1 47 6.44 4.8 30 35 1007.7 0 14.9 21.8 30.4 79.4 68.6 234.5
03 16:30 16.9 45 6.47 4.9 28 39 1007.3 0 14.9 21.6 30.2 78.9 68.3 233.4
03 16:20 17 45 6.51 5 24 28 1007.4 0 15.0 21.7 30.3 79.2 68.7 234.7
03 16:10 17.3 44 6.48 4.9 26 30 1007.2 0 14.9 21.5 30.1 78.6 68.1 232.6
03 16:00 17.9 42 6.41 4.8 24 35 1006.9 0 14.8 21.3 29.6 77.4 66.7 228.0
03 15:50 18.5 41 6.49 5 22 28 1007 0 14.9 21.3 29.7 77.5 67.1 229.6
03 15:40 18 42 6.45 4.9 30 35 1006.9 0 14.9 21.3 29.7 77.6 67.1 229.4
03 15:30 18.2 43 6.68 5.4 26 44 1006.6 0 15.3 21.6 30.4 79.5 69.6 238.0
03 15:20 18.4 42 6.61 5.3 17 20 1006.6 0 15.2 21.5 30.1 78.7 68.6 234.6
03 15:10 19.4 40 6.67 5.5 19 20 1006.5 0 15.3 21.3 29.9 78.3 68.4 234.1
03 15:00 18.3 43 6.72 5.5 11 20 1006.3 0 15.4 21.6 30.5 79.8 69.9 239.3
03 14:50 18.2 43 6.68 5.4 7 13 1006.5 0 15.3 21.6 30.4 79.5 69.5 238.0
03 14:40 18.6 43 6.84 5.8 15 17 1006.6 0 15.7 21.7 30.8 80.6 71.0 243.3
03 14:30 18.6 43 6.84 5.8 17 24 1006.5 0 15.7 21.7 30.8 80.6 71.0 243.3
03 14:20 18.6 41 6.52 5.1 15 17 1006.7 0 15.0 21.3 29.7 77.7 67.4 230.4
03 14:10 19.1 42 6.88 5.9 9 13 1006.8 0 15.7 21.7 30.8 80.5 71.1 243.5
03 14:00 18.7 43 6.88 5.9 13 24 1006.7 0 15.7 21.8 30.9 80.9 71.4 244.6
03 13:50 18.1 44 6.8 5.7 15 17 1007.1 0 15.6 21.8 30.9 80.8 71.1 243.3
03 13:40 18.6 43 6.84 5.8 9 13 1007.1 0 15.7 21.7 30.9 80.7 71.1 243.4
03 13:30 18 44 6.76 5.6 13 20 1007 0 15.5 21.8 30.8 80.5 70.7 241.9
03 13:20 17.7 45 6.79 5.6 11 13 1007.3 0 15.6 21.9 31.0 81.1 71.3 244.1
03 13:10 17.9 45 6.87 5.8 13 15 1007.4 0 15.7 22.0 31.2 81.7 72.1 246.8
03 13:00 17.5 46 6.86 5.8 13 19 1007.4 0 15.7 22.0 31.3 82.0 72.3 247.6
03 12:50 17.8 45 6.83 5.7 15 17 1007.8 0 15.7 21.9 31.1 81.5 71.7 245.5
03 12:40 17.7 46 6.94 5.9 13 15 1007.8 0 15.9 22.1 31.6 82.6 73.1 250.4
03 12:30 17.8 46 6.98 6 7 19 1007.7 0 16.0 22.2 31.7 82.9 73.5 251.7
03 12:20 17.3 47 6.92 5.9 9 13 1008 0 15.9 22.2 31.7 82.8 73.2 250.8
03 12:10 17.1 49 7.13 6.3 6 7 1008.2 0 16.3 22.6 32.5 85.1 75.9 260.2
03 12:00 16.6 49 6.92 5.9 6 11 1008.3 0 15.9 22.4 31.9 83.6 73.9 253.1
03 11:50 16.7 50 7.11 6.2 9 9 1008.7 0 16.3 22.7 32.6 85.4 76.1 260.8
03 11:40 16.8 49 7.01 6 6 7 1008.9 0 16.1 22.5 32.2 84.3 74.8 256.3

Last Refresh: 04-Aug-2020 06:16:16

Most of the information presented on this site is sourced from the Bureau of Meteorology.  Copyright in all material sourced from the Bureau of Meteorology resides with the Commonwealth of Australia.